createdAt,value
2022-11-14T00:01:29.375Z,8.98
2022-11-14T00:03:57.602Z,9.00
2022-11-14T00:06:25.802Z,9.02
2022-11-14T00:08:54.008Z,9.02
2022-11-14T00:11:22.235Z,9.02
2022-11-14T00:13:50.440Z,9.03
2022-11-14T00:16:18.664Z,9.03
2022-11-14T00:18:48.253Z,9.03
2022-11-14T00:21:16.485Z,9.04
2022-11-14T00:23:44.652Z,9.02
2022-11-14T00:26:12.897Z,9.03
2022-11-14T00:28:41.103Z,9.03
2022-11-14T00:31:10.883Z,9.03
2022-11-14T00:33:39.808Z,9.02
2022-11-14T00:36:10.101Z,9.00
2022-11-14T00:38:38.308Z,8.98
2022-11-14T00:41:06.961Z,8.96
2022-11-14T00:43:35.128Z,8.94
2022-11-14T00:46:03.368Z,8.93
2022-11-14T00:48:32.119Z,8.92
2022-11-14T00:51:00.479Z,8.91
2022-11-14T00:53:30.100Z,8.90
2022-11-14T00:55:58.375Z,8.88
2022-11-14T00:58:26.803Z,8.84
2022-11-14T01:00:56.524Z,8.78
2022-11-14T01:03:24.968Z,8.74
2022-11-14T01:05:53.525Z,8.69
2022-11-14T01:08:21.793Z,8.63
2022-11-14T01:10:52.350Z,8.60
2022-11-14T01:13:20.939Z,8.58
2022-11-14T01:15:50.821Z,8.58
2022-11-14T01:18:21.259Z,8.55
2022-11-14T01:20:50.466Z,8.51
2022-11-14T01:23:18.923Z,8.45
2022-11-14T01:25:47.438Z,8.44
2022-11-14T01:28:20.027Z,8.45
2022-11-14T01:30:48.247Z,8.44
2022-11-14T01:33:16.487Z,8.44
2022-11-14T01:35:44.670Z,8.43
2022-11-14T01:38:15.787Z,8.40
2022-11-14T01:40:45.873Z,8.38
2022-11-14T01:43:27.946Z,8.40
2022-11-14T01:46:00.695Z,8.43
2022-11-14T01:48:37.387Z,8.44
2022-11-14T01:51:19.066Z,8.48
2022-11-14T01:53:49.861Z,8.51
2022-11-14T01:56:27.184Z,8.52
2022-11-14T01:59:04.095Z,8.58
2022-11-14T02:01:36.927Z,8.60
2022-11-14T02:04:08.886Z,8.61
2022-11-14T02:06:41.446Z,8.60
2022-11-14T02:09:09.760Z,8.62
2022-11-14T02:11:41.670Z,8.64
2022-11-14T02:14:11.927Z,8.67
2022-11-14T02:16:51.709Z,8.69
2022-11-14T02:19:43.468Z,8.70
2022-11-14T02:22:13.034Z,8.72
2022-11-14T02:24:41.323Z,8.73
2022-11-14T02:27:11.375Z,8.76
2022-11-14T02:29:41.747Z,8.78
2022-11-14T02:32:11.031Z,8.81
2022-11-14T02:34:39.963Z,8.79
2022-11-14T02:37:09.155Z,8.85
2022-11-14T02:39:39.273Z,8.86
2022-11-14T02:42:07.782Z,8.85
2022-11-14T02:44:35.956Z,8.86
2022-11-14T02:47:04.246Z,8.90
2022-11-14T02:49:32.413Z,8.91
2022-11-14T02:52:00.585Z,8.91
2022-11-14T02:54:28.806Z,8.94
2022-11-14T02:56:58.354Z,8.95
2022-11-14T02:59:26.533Z,8.95
2022-11-14T03:01:57.285Z,8.95
2022-11-14T03:04:25.501Z,8.99
2022-11-14T03:06:53.717Z,9.01
2022-11-14T03:09:21.972Z,9.02
2022-11-14T03:11:50.712Z,9.03
2022-11-14T03:14:20.293Z,9.02
2022-11-14T03:16:48.525Z,9.02
2022-11-14T03:19:16.773Z,9.02
2022-11-14T03:21:46.194Z,9.01
2022-11-14T03:24:16.932Z,9.01
2022-11-14T03:26:45.128Z,9.02
2022-11-14T03:29:13.341Z,9.02
2022-11-14T03:31:42.955Z,9.04
2022-11-14T03:34:11.717Z,9.04
2022-11-14T03:36:40.713Z,9.03
2022-11-14T03:39:09.181Z,9.02
2022-11-14T03:41:37.373Z,9.02
2022-11-14T03:44:05.860Z,9.03
2022-11-14T03:46:33.986Z,9.03
2022-11-14T03:49:03.574Z,9.03
2022-11-14T03:51:31.807Z,9.00
2022-11-14T03:54:00.034Z,8.98
2022-11-14T03:56:28.284Z,9.00
2022-11-14T03:58:56.484Z,8.97
2022-11-14T04:01:24.785Z,8.97
2022-11-14T04:03:53.539Z,8.96
2022-11-14T04:06:23.569Z,8.95
2022-11-14T04:08:52.376Z,8.97
2022-11-14T04:11:21.122Z,8.97
2022-11-14T04:13:49.327Z,8.96
2022-11-14T04:16:17.456Z,8.95
2022-11-14T04:18:45.690Z,8.95
2022-11-14T04:21:14.158Z,8.95
2022-11-14T04:23:43.685Z,8.93
2022-11-14T04:26:12.079Z,8.94
2022-11-14T04:28:40.361Z,8.94
2022-11-14T04:31:08.814Z,8.94
2022-11-14T04:33:37.361Z,8.94
2022-11-14T04:36:06.266Z,8.94
2022-11-14T04:38:34.544Z,8.91
2022-11-14T04:41:04.290Z,8.91
2022-11-14T04:43:32.595Z,8.90
2022-11-14T04:46:00.743Z,8.90
2022-11-14T04:48:29.176Z,8.91
2022-11-14T04:50:57.642Z,8.90
2022-11-14T04:53:25.835Z,8.89
2022-11-14T04:55:54.025Z,8.88
2022-11-14T04:58:23.604Z,8.85
2022-11-14T05:00:51.844Z,8.82
2022-11-14T05:03:20.051Z,8.82
2022-11-14T05:05:48.261Z,8.81
2022-11-14T05:08:16.408Z,8.79
2022-11-14T05:10:45.409Z,8.79
2022-11-14T05:13:14.282Z,8.80
2022-11-14T05:15:43.892Z,8.80
2022-11-14T05:18:13.248Z,8.80
2022-11-14T05:20:41.497Z,8.78
2022-11-14T05:23:20.600Z,8.75
2022-11-14T05:25:48.980Z,8.73
2022-11-14T05:28:17.178Z,8.72
2022-11-14T05:30:46.893Z,8.69
2022-11-14T05:33:15.085Z,8.66
2022-11-14T05:35:43.306Z,8.62
2022-11-14T05:38:13.832Z,8.60
2022-11-14T05:40:41.974Z,8.59
2022-11-14T05:43:10.143Z,8.60
2022-11-14T05:45:38.371Z,8.59
2022-11-14T05:48:08.182Z,8.59
2022-11-14T05:50:36.345Z,8.58
2022-11-14T05:53:04.621Z,8.55
2022-11-14T05:55:32.847Z,8.55
2022-11-14T05:58:01.506Z,8.56
2022-11-14T06:00:29.910Z,8.55
2022-11-14T06:02:58.538Z,8.55
2022-11-14T06:05:28.148Z,8.55
2022-11-14T06:07:57.648Z,8.54
2022-11-14T06:10:29.458Z,8.53
2022-11-14T06:12:57.690Z,8.50
2022-11-14T06:15:25.831Z,8.49
2022-11-14T06:17:54.629Z,8.49
2022-11-14T06:20:23.035Z,8.49
2022-11-14T06:22:55.844Z,8.48
2022-11-14T06:25:24.054Z,8.47
2022-11-14T06:27:52.253Z,8.45
2022-11-14T06:30:21.144Z,8.44
2022-11-14T06:32:49.508Z,8.43
2022-11-14T06:35:17.864Z,8.41
2022-11-14T06:37:46.021Z,8.40
2022-11-14T06:40:16.017Z,8.40
2022-11-14T06:42:44.193Z,8.40
2022-11-14T06:45:12.760Z,8.39
2022-11-14T06:47:41.012Z,8.38
2022-11-14T06:50:10.282Z,8.39
2022-11-14T06:52:38.461Z,8.38
2022-11-14T06:55:07.794Z,8.35
2022-11-14T06:57:37.476Z,8.33
2022-11-14T07:00:07.157Z,8.32
2022-11-14T07:02:35.555Z,8.32
2022-11-14T07:05:03.796Z,8.33
2022-11-14T07:07:32.517Z,8.33
2022-11-14T07:10:00.770Z,8.33
2022-11-14T07:12:29.622Z,8.29
2022-11-14T07:14:59.206Z,8.26
2022-11-14T07:17:31.217Z,8.26
2022-11-14T07:19:59.655Z,8.27
2022-11-14T07:22:27.845Z,8.26
2022-11-14T07:24:55.989Z,8.24
2022-11-14T07:27:24.194Z,8.19
2022-11-14T07:29:52.332Z,8.19
2022-11-14T07:32:21.859Z,8.21
2022-11-14T07:34:50.036Z,8.24
2022-11-14T07:37:18.327Z,8.27
2022-11-14T07:39:47.122Z,8.28
2022-11-14T07:42:15.684Z,8.33
2022-11-14T07:44:44.060Z,8.35
2022-11-14T07:47:12.309Z,8.38
2022-11-14T07:49:42.097Z,8.40
2022-11-14T07:52:10.278Z,8.41
2022-11-14T07:54:38.419Z,8.43
2022-11-14T07:57:06.726Z,8.45
2022-11-14T07:59:34.932Z,8.49
2022-11-14T08:02:03.139Z,8.53
2022-11-14T08:04:31.383Z,8.56
2022-11-14T08:07:01.212Z,8.59
2022-11-14T08:09:29.616Z,8.59
2022-11-14T08:11:57.809Z,8.60
2022-11-14T08:14:25.977Z,8.62
2022-11-14T08:16:54.200Z,8.64
2022-11-14T08:19:22.373Z,8.64
2022-11-14T08:21:50.686Z,8.65
2022-11-14T08:24:20.222Z,8.66
2022-11-14T08:26:48.379Z,8.67
2022-11-14T08:29:16.566Z,8.69
2022-11-14T08:31:44.761Z,8.68
2022-11-14T08:34:12.988Z,8.71
2022-11-14T08:36:41.199Z,8.71
2022-11-14T08:39:09.373Z,8.75
2022-11-14T08:41:38.861Z,8.82
2022-11-14T08:44:07.389Z,8.86
2022-11-14T08:46:36.381Z,8.86
2022-11-14T08:49:04.613Z,8.87
2022-11-14T08:51:32.797Z,8.91
2022-11-14T08:54:00.998Z,8.97
2022-11-14T08:56:29.233Z,9.02
2022-11-14T08:58:58.823Z,9.07
2022-11-14T09:01:27.038Z,9.09
2022-11-14T09:03:59.662Z,9.10
2022-11-14T09:06:28.316Z,9.11
2022-11-14T09:08:57.703Z,9.19
2022-11-14T09:11:25.924Z,9.24
2022-11-14T09:13:54.098Z,9.27
2022-11-14T09:16:23.741Z,9.32
2022-11-14T09:18:52.207Z,9.39
2022-11-14T09:21:20.474Z,9.45
2022-11-14T09:23:49.409Z,9.47
2022-11-14T09:26:18.378Z,9.49
2022-11-14T09:28:46.892Z,9.51
2022-11-14T09:31:15.351Z,9.55
2022-11-14T09:33:44.934Z,9.61
2022-11-14T09:36:15.933Z,9.70
2022-11-14T09:38:44.667Z,9.78
2022-11-14T09:41:26.171Z,9.80
2022-11-14T09:44:34.039Z,9.78
2022-11-14T09:47:06.859Z,9.78
2022-11-14T09:49:40.130Z,9.79
2022-11-14T09:52:21.277Z,9.81
2022-11-14T09:54:55.972Z,9.88
2022-11-14T09:57:24.376Z,9.92
2022-11-14T09:59:52.981Z,9.93
2022-11-14T10:02:35.755Z,9.99
2022-11-14T10:05:23.503Z,10.00
2022-11-14T10:08:10.937Z,9.98
2022-11-14T10:10:51.636Z,9.94
2022-11-14T10:13:45.675Z,9.90
2022-11-14T10:16:20.045Z,9.94
2022-11-14T10:19:12.444Z,10.05
2022-11-14T10:22:00.252Z,10.13
2022-11-14T10:24:51.706Z,10.21
2022-11-14T10:27:25.333Z,10.30
2022-11-14T10:30:09.123Z,10.34
2022-11-14T10:33:11.845Z,10.40
2022-11-14T10:35:44.075Z,10.48
2022-11-14T10:38:21.484Z,10.58
2022-11-14T10:40:53.857Z,10.71
2022-11-14T10:43:28.626Z,10.85
2022-11-14T10:46:04.800Z,10.89
2022-11-14T10:48:37.312Z,10.91
2022-11-14T10:51:14.160Z,10.95
2022-11-14T10:53:54.347Z,10.94
2022-11-14T10:56:23.008Z,10.87
2022-11-14T10:58:51.262Z,10.79
2022-11-14T11:01:39.579Z,10.83
2022-11-14T11:04:21.620Z,10.92
2022-11-14T11:06:51.608Z,10.94
2022-11-14T11:09:45.507Z,10.92
2022-11-14T11:12:19.359Z,10.82
2022-11-14T11:14:50.129Z,10.71
2022-11-14T11:17:28.405Z,10.58
2022-11-14T11:20:34.092Z,10.40
2022-11-14T11:23:07.004Z,10.30
2022-11-14T11:25:37.634Z,10.22
2022-11-14T11:28:12.621Z,10.18
2022-11-14T11:30:41.437Z,10.16
2022-11-14T11:33:25.380Z,10.14
2022-11-14T11:35:57.642Z,10.13
2022-11-14T11:38:28.722Z,10.11
2022-11-14T11:41:15.437Z,10.14
2022-11-14T11:43:58.324Z,10.17
2022-11-14T11:46:33.700Z,10.20
2022-11-14T11:49:19.732Z,10.26
2022-11-14T11:51:50.963Z,10.35
2022-11-14T11:54:23.160Z,10.41
2022-11-14T11:56:58.789Z,10.42
2022-11-14T11:59:34.829Z,10.44
2022-11-14T12:02:13.335Z,10.45
2022-11-14T12:04:41.606Z,10.49
2022-11-14T12:07:15.769Z,10.51
2022-11-14T12:12:59.229Z,10.47
2022-11-14T12:15:38.941Z,10.52
2022-11-14T12:18:39.162Z,10.62
2022-11-14T12:21:14.299Z,10.70
2022-11-14T12:24:16.840Z,10.77
2022-11-14T12:26:58.704Z,10.85
2022-11-14T12:29:51.552Z,10.93
2022-11-14T12:32:28.566Z,10.99
2022-11-14T12:34:57.018Z,11.00
2022-11-14T12:37:33.696Z,11.00
2022-11-14T12:40:06.351Z,11.04
2022-11-14T12:42:35.317Z,11.07
2022-11-14T12:45:05.406Z,11.10
2022-11-14T12:47:33.691Z,11.23
2022-11-14T12:50:07.345Z,11.76
2022-11-14T12:52:49.845Z,12.42
2022-11-14T12:55:57.318Z,13.07
2022-11-14T12:58:47.275Z,13.61
2022-11-14T13:01:49.689Z,13.94
2022-11-14T13:04:33.229Z,14.22
2022-11-14T13:07:32.779Z,14.40
2022-11-14T13:10:14.685Z,14.31
2022-11-14T13:13:01.943Z,13.77
2022-11-14T13:15:51.158Z,13.17
2022-11-14T13:18:43.634Z,12.72
2022-11-14T13:21:45.048Z,12.34
2022-11-14T13:24:16.232Z,12.05
2022-11-14T13:26:50.925Z,11.86
2022-11-14T13:29:56.166Z,11.69
2022-11-14T13:33:07.667Z,11.53
2022-11-14T13:36:02.191Z,11.42
2022-11-14T13:39:08.406Z,11.34
2022-11-14T13:42:23.550Z,11.25
2022-11-14T13:45:42.022Z,11.15
2022-11-14T13:48:48.416Z,11.07
2022-11-14T13:54:17.515Z,11.01
2022-11-14T13:57:00.927Z,10.96
2022-11-14T13:59:51.499Z,10.92
2022-11-14T14:02:58.865Z,10.87
2022-11-14T14:05:39.117Z,10.84
2022-11-14T14:08:22.968Z,10.79
2022-11-14T14:11:07.205Z,10.76
2022-11-14T14:13:52.490Z,10.72
2022-11-14T14:16:36.175Z,10.69
2022-11-14T14:19:14.058Z,10.66
2022-11-14T14:21:50.176Z,10.62
2022-11-14T14:24:43.028Z,10.58
2022-11-14T14:27:21.804Z,10.56
2022-11-14T14:30:02.913Z,10.51
2022-11-14T14:32:31.125Z,10.48
2022-11-14T14:35:00.625Z,10.45
2022-11-14T14:37:30.738Z,10.43
2022-11-14T14:40:03.262Z,10.38
2022-11-14T14:42:40.363Z,10.35
2022-11-14T14:45:17.824Z,10.32
2022-11-14T14:47:48.572Z,10.30
2022-11-14T14:50:21.184Z,10.23
2022-11-14T14:52:57.999Z,10.17
2022-11-14T14:55:30.510Z,10.12
2022-11-14T14:58:22.069Z,10.02
2022-11-14T15:00:55.276Z,9.95
2022-11-14T15:03:25.907Z,9.88
2022-11-14T15:06:00.970Z,9.81
2022-11-14T15:08:31.480Z,9.74
2022-11-14T15:11:02.711Z,9.68
2022-11-14T15:13:32.131Z,9.63
2022-11-14T15:16:01.810Z,9.54
2022-11-14T15:18:33.093Z,9.47
2022-11-14T15:21:16.410Z,9.39
2022-11-14T15:23:44.887Z,9.31
2022-11-14T15:26:18.161Z,9.25
2022-11-14T15:28:46.804Z,9.17
2022-11-14T15:31:20.561Z,9.09
2022-11-14T15:34:03.206Z,9.00
2022-11-14T15:36:31.517Z,8.95
2022-11-14T15:39:02.829Z,8.88
2022-11-14T15:41:33.154Z,8.83
2022-11-14T15:44:05.527Z,8.76
2022-11-14T15:46:43.961Z,8.72
2022-11-14T15:49:22.772Z,8.69
2022-11-14T15:51:56.281Z,8.64
2022-11-14T15:54:30.813Z,8.58
2022-11-14T15:57:02.786Z,8.49
2022-11-14T15:59:31.971Z,8.42
2022-11-14T16:02:05.795Z,8.43
2022-11-14T16:04:37.142Z,8.46
2022-11-14T16:07:06.088Z,8.49
2022-11-14T16:09:34.364Z,8.52
2022-11-14T16:12:04.214Z,8.60
2022-11-14T16:14:42.641Z,8.72
2022-11-14T16:17:15.393Z,8.84
2022-11-14T16:19:43.928Z,8.94
2022-11-14T16:22:15.731Z,9.04
2022-11-14T16:24:43.886Z,9.12
2022-11-14T16:27:13.458Z,9.21
2022-11-14T16:29:41.660Z,9.28
2022-11-14T16:32:11.674Z,9.35
2022-11-14T16:34:39.974Z,9.39
2022-11-14T16:37:12.698Z,9.45
2022-11-14T16:39:41.289Z,9.50
2022-11-14T16:42:13.231Z,9.54
2022-11-14T16:44:46.334Z,9.57
2022-11-14T16:47:19.848Z,9.60
2022-11-14T16:49:48.018Z,9.62
2022-11-14T16:52:17.100Z,9.64
2022-11-14T16:54:45.275Z,9.56
2022-11-14T16:57:14.827Z,9.42
2022-11-14T16:59:43.092Z,9.24
2022-11-14T17:02:16.118Z,9.09
2022-11-14T17:04:45.098Z,8.94
2022-11-14T17:07:15.116Z,8.82
2022-11-14T17:09:44.925Z,8.73
2022-11-14T17:12:14.490Z,8.66
2022-11-14T17:14:42.599Z,8.60
2022-11-14T17:17:10.829Z,8.54
2022-11-14T17:19:45.659Z,8.48
2022-11-14T17:22:14.044Z,8.43
2022-11-14T17:24:42.523Z,8.37
2022-11-14T17:27:12.878Z,8.31
2022-11-14T17:29:42.594Z,8.26
2022-11-14T17:32:10.993Z,8.22
2022-11-14T17:34:39.209Z,8.19
2022-11-14T17:37:07.405Z,8.14
2022-11-14T17:39:35.641Z,8.09
2022-11-14T17:42:03.876Z,8.03
2022-11-14T17:44:32.188Z,7.99
2022-11-14T17:47:04.310Z,7.92
2022-11-14T17:49:33.216Z,7.87
2022-11-14T17:52:01.478Z,7.81
2022-11-14T17:54:31.307Z,7.76
2022-11-14T17:56:59.987Z,7.73
2022-11-14T17:59:28.206Z,7.70
2022-11-14T18:02:01.062Z,7.68
2022-11-14T18:04:31.865Z,7.63
2022-11-14T18:07:01.736Z,7.63
2022-11-14T18:09:32.389Z,7.67
2022-11-14T18:12:01.826Z,7.78
2022-11-14T18:14:32.620Z,7.92
2022-11-14T18:17:16.283Z,8.04
2022-11-14T18:19:46.004Z,8.15
2022-11-14T18:22:14.179Z,8.24
2022-11-14T18:24:47.188Z,8.30
2022-11-14T18:27:16.368Z,8.35
2022-11-14T18:29:44.637Z,8.40
2022-11-14T18:32:12.894Z,8.43
2022-11-14T18:34:41.978Z,8.46
2022-11-14T18:37:11.644Z,8.48
2022-11-14T18:39:39.795Z,8.49
2022-11-14T18:42:08.052Z,8.50
2022-11-14T18:44:36.319Z,8.51
2022-11-14T18:47:04.526Z,8.48
2022-11-14T18:49:32.768Z,8.47
2022-11-14T18:52:05.476Z,8.49
2022-11-14T18:54:40.141Z,8.50
2022-11-14T18:57:08.401Z,8.46
2022-11-14T18:59:36.962Z,8.46
2022-11-14T19:02:05.381Z,8.50
2022-11-14T19:04:33.995Z,8.54
2022-11-14T19:07:02.274Z,8.58
2022-11-14T19:09:31.187Z,8.62
2022-11-14T19:12:18.362Z,8.64
2022-11-14T19:14:46.909Z,8.68
2022-11-14T19:17:18.707Z,8.72
2022-11-14T19:19:46.924Z,8.74
2022-11-14T19:22:15.167Z,8.77
2022-11-14T19:24:43.481Z,8.81
2022-11-14T19:27:13.518Z,8.84
2022-11-14T19:29:41.853Z,8.84
2022-11-14T19:32:10.137Z,8.87
2022-11-14T19:34:38.611Z,8.88
2022-11-14T19:37:08.458Z,8.90
2022-11-14T19:39:36.747Z,8.91
2022-11-14T19:42:05.260Z,8.93
2022-11-14T19:44:35.565Z,8.95
2022-11-14T19:47:03.824Z,8.96
2022-11-14T19:49:32.161Z,8.97
2022-11-14T19:52:00.432Z,8.98
2022-11-14T19:54:28.725Z,9.01
2022-11-14T19:56:57.055Z,9.02
2022-11-14T19:59:27.857Z,9.02
2022-11-14T20:01:57.588Z,9.04
2022-11-14T20:04:28.599Z,9.05
2022-11-14T20:06:57.543Z,9.07
2022-11-14T20:09:25.948Z,9.08
2022-11-14T20:11:54.242Z,9.10
2022-11-14T20:14:22.488Z,9.11
2022-11-14T20:16:51.096Z,9.12
2022-11-14T20:19:20.808Z,9.11
2022-11-14T20:21:50.614Z,9.11
2022-11-14T20:24:21.638Z,9.12
2022-11-14T20:26:49.898Z,9.14
2022-11-14T20:29:18.182Z,9.16
2022-11-14T20:31:46.395Z,9.17
2022-11-14T20:34:14.911Z,9.18
2022-11-14T20:37:09.305Z,9.21
2022-11-14T20:39:33.002Z,9.23
2022-11-14T20:42:01.464Z,9.23
2022-11-14T20:44:29.803Z,9.24
2022-11-14T20:46:58.032Z,9.26
2022-11-14T20:49:26.377Z,9.28
2022-11-14T20:51:55.942Z,9.28
2022-11-14T20:54:25.464Z,9.29
2022-11-14T20:56:53.677Z,9.31
2022-11-14T20:59:22.111Z,9.33
2022-11-14T21:01:50.853Z,9.33
2022-11-14T21:04:19.376Z,9.34
2022-11-14T21:06:47.676Z,9.37
2022-11-14T21:09:17.670Z,9.39
2022-11-14T21:11:45.980Z,9.40
2022-11-14T21:14:14.539Z,9.44
2022-11-14T21:16:42.832Z,9.46
2022-11-14T21:19:11.163Z,9.48
2022-11-14T21:21:39.750Z,9.50
2022-11-14T21:24:08.972Z,9.51
2022-11-14T21:26:40.805Z,9.52
2022-11-14T21:29:16.134Z,9.55
2022-11-14T21:31:46.669Z,9.55
2022-11-14T21:34:18.143Z,9.59
2022-11-14T21:36:47.329Z,9.58
2022-11-14T21:39:17.714Z,9.61
2022-11-14T21:41:49.331Z,9.64
2022-11-14T21:44:18.953Z,9.64
2022-11-14T21:46:48.651Z,9.67
2022-11-14T21:49:17.346Z,9.67
2022-11-14T21:51:45.804Z,9.69
2022-11-14T21:54:14.091Z,9.69
2022-11-14T21:56:42.366Z,9.69
2022-11-14T21:59:18.796Z,9.70
2022-11-14T22:02:08.069Z,9.71
2022-11-14T22:04:37.524Z,9.70
2022-11-14T22:07:09.112Z,9.70
2022-11-14T22:09:42.533Z,9.70
2022-11-14T22:12:13.372Z,9.69
2022-11-14T22:14:42.994Z,9.70
2022-11-14T22:17:11.294Z,9.70
2022-11-14T22:19:39.564Z,9.69
2022-11-14T22:22:08.075Z,9.69
2022-11-14T22:24:36.436Z,9.69
2022-11-14T22:27:04.799Z,9.69
2022-11-14T22:29:33.072Z,9.69
2022-11-14T22:32:02.654Z,9.68
2022-11-14T22:34:30.929Z,9.68
2022-11-14T22:37:00.007Z,9.68
2022-11-14T22:39:28.374Z,9.69
2022-11-14T22:41:56.583Z,9.60
2022-11-14T22:44:24.901Z,9.68
2022-11-14T22:46:53.134Z,9.68
2022-11-14T22:49:22.750Z,9.69
2022-11-14T22:51:51.052Z,9.69
2022-11-14T22:54:20.861Z,9.68
2022-11-14T22:56:49.152Z,9.69
2022-11-14T22:59:17.403Z,9.69
2022-11-14T23:01:45.757Z,9.71
2022-11-14T23:04:14.206Z,9.71
2022-11-14T23:06:44.196Z,9.71
2022-11-14T23:09:12.672Z,9.72
2022-11-14T23:11:41.098Z,9.71
2022-11-14T23:14:12.924Z,9.71
2022-11-14T23:16:41.097Z,9.71
2022-11-14T23:19:09.680Z,9.71
2022-11-14T23:21:38.974Z,9.71
2022-11-14T23:24:14.949Z,9.72
2022-11-14T23:26:43.275Z,9.74
2022-11-14T23:29:15.076Z,9.74
2022-11-14T23:31:43.321Z,9.75
2022-11-14T23:34:11.492Z,9.76
2022-11-14T23:36:39.744Z,9.77
2022-11-14T23:39:09.343Z,9.77
2022-11-14T23:41:37.538Z,9.78
2022-11-14T23:44:06.207Z,9.79
2022-11-14T23:46:34.445Z,9.79
2022-11-14T23:49:02.955Z,9.80
2022-11-14T23:51:31.131Z,9.81
2022-11-14T23:53:59.429Z,9.81
2022-11-14T23:56:29.008Z,9.82
2022-11-14T23:58:57.988Z,9.81
